createdAt,value
2022-10-05T00:00:45.510Z,100691.00
2022-10-05T00:03:13.340Z,100665.06
2022-10-05T00:05:41.508Z,100695.06
2022-10-05T00:08:15.281Z,100691.19
2022-10-05T00:10:43.872Z,100602.84
2022-10-05T00:13:20.433Z,100683.41
2022-10-05T00:15:49.365Z,100672.19
2022-10-05T00:18:18.705Z,100682.75
2022-10-05T00:20:47.389Z,100672.34
2022-10-05T00:23:19.458Z,100665.00
2022-10-05T00:25:47.958Z,100674.75
2022-10-05T00:28:21.851Z,100668.59
2022-10-05T00:30:49.962Z,100610.03
2022-10-05T00:33:17.958Z,100662.44
2022-10-05T00:35:45.922Z,100666.91
2022-10-05T00:38:13.856Z,100609.09
2022-10-05T00:40:53.171Z,100669.38
2022-10-05T00:43:41.554Z,100669.75
2022-10-05T00:46:16.221Z,100660.06
2022-10-05T00:48:50.669Z,100664.56
2022-10-05T00:51:26.138Z,100656.25
2022-10-05T00:54:12.558Z,100629.91
2022-10-05T00:57:07.277Z,100607.28
2022-10-05T00:59:50.031Z,100636.41
2022-10-05T01:02:26.765Z,100643.50
2022-10-05T01:05:00.965Z,100643.19
2022-10-05T01:07:38.888Z,100646.78
2022-10-05T01:10:15.836Z,100604.38
2022-10-05T01:12:54.468Z,100593.66
2022-10-05T01:15:28.868Z,100655.00
2022-10-05T01:18:06.696Z,100491.38
2022-10-05T01:20:50.448Z,100650.16
2022-10-05T01:23:52.494Z,100646.16
2022-10-05T01:26:37.594Z,100660.63
2022-10-05T01:29:15.248Z,100644.84
2022-10-05T01:31:52.406Z,100619.84
2022-10-05T01:34:29.243Z,100654.13
2022-10-05T01:37:05.697Z,100643.41
2022-10-05T01:39:47.403Z,100649.56
2022-10-05T01:42:30.616Z,100210.94
2022-10-05T01:45:08.633Z,100633.63
2022-10-05T01:47:44.581Z,100633.78
2022-10-05T01:50:23.807Z,100626.84
2022-10-05T01:52:59.431Z,100620.25
2022-10-05T01:55:36.021Z,100608.88
2022-10-05T01:58:24.324Z,100606.25
2022-10-05T02:01:04.480Z,100592.03
2022-10-05T02:03:39.235Z,100602.00
2022-10-05T02:06:13.276Z,100605.44
2022-10-05T02:08:48.218Z,100576.22
2022-10-05T02:11:17.906Z,100601.09
2022-10-05T02:13:50.070Z,100601.47
2022-10-05T02:16:25.865Z,100598.44
2022-10-05T02:18:58.625Z,100584.41
2022-10-05T02:21:27.788Z,100595.97
2022-10-05T02:24:01.495Z,100600.44
2022-10-05T02:26:32.353Z,100593.41
2022-10-05T02:29:05.164Z,100600.47
2022-10-05T02:31:41.432Z,100596.22
2022-10-05T02:34:24.265Z,100588.16
2022-10-05T02:37:09.276Z,100590.69
2022-10-05T02:39:47.385Z,100577.78
2022-10-05T02:42:24.497Z,100579.88
2022-10-05T02:45:07.220Z,100582.00
2022-10-05T02:47:46.250Z,100556.69
2022-10-05T02:50:27.018Z,100576.59
2022-10-05T02:53:08.126Z,100579.16
2022-10-05T02:55:46.726Z,100543.91
2022-10-05T02:58:17.408Z,100518.28
2022-10-05T03:00:50.021Z,100541.97
2022-10-05T03:03:29.092Z,100561.31
2022-10-05T03:06:01.754Z,100565.66
2022-10-05T03:08:37.601Z,100556.69
2022-10-05T03:11:12.328Z,100551.13
2022-10-05T03:13:49.520Z,100466.00
2022-10-05T03:16:36.825Z,100544.94
2022-10-05T03:19:19.001Z,100553.84
2022-10-05T03:21:57.308Z,100553.00
2022-10-05T03:24:39.693Z,100558.38
2022-10-05T03:27:18.512Z,100551.25
2022-10-05T03:29:57.118Z,100538.97
2022-10-05T03:32:35.179Z,100536.31
2022-10-05T03:35:12.535Z,100549.41
2022-10-05T03:37:48.940Z,100551.19
2022-10-05T03:40:27.663Z,100514.34
2022-10-05T03:43:07.457Z,100533.63
2022-10-05T03:45:43.548Z,100530.16
2022-10-05T03:48:16.852Z,100473.78
2022-10-05T03:51:08.100Z,100489.94
2022-10-05T03:53:41.911Z,100516.75
2022-10-05T03:56:15.663Z,100526.72
2022-10-05T03:58:51.633Z,100521.41
2022-10-05T04:01:26.462Z,100517.09
2022-10-05T04:04:00.642Z,100508.25
2022-10-05T04:06:35.826Z,100505.00
2022-10-05T04:09:10.560Z,100514.50
2022-10-05T04:11:43.377Z,100510.81
2022-10-05T04:14:16.924Z,100507.81
2022-10-05T04:16:47.909Z,100507.88
2022-10-05T04:19:23.077Z,100509.41
2022-10-05T04:21:54.568Z,100499.44
2022-10-05T04:24:29.893Z,100500.97
2022-10-05T04:27:01.541Z,100500.16
2022-10-05T04:29:39.560Z,100504.53
2022-10-05T04:32:26.714Z,100493.28
2022-10-05T04:35:10.915Z,100506.56
2022-10-05T04:37:51.108Z,100489.56
2022-10-05T04:40:33.387Z,100494.59
2022-10-05T04:43:09.614Z,100481.31
2022-10-05T04:45:50.984Z,100482.50
2022-10-05T04:48:41.058Z,100487.69
2022-10-05T04:51:16.742Z,100483.88
2022-10-05T04:53:55.184Z,100473.47
2022-10-05T04:56:34.528Z,100480.56
2022-10-05T04:59:26.236Z,100476.16
2022-10-05T05:02:06.879Z,100475.38
2022-10-05T05:04:57.320Z,100478.09
2022-10-05T05:07:42.016Z,100481.59
2022-10-05T05:10:54.444Z,100472.66
2022-10-05T05:13:48.111Z,100468.31
2022-10-05T05:16:25.682Z,100445.38
2022-10-05T05:19:08.628Z,100484.19
2022-10-05T05:21:47.730Z,100490.50
2022-10-05T05:24:23.182Z,100494.91
2022-10-05T05:27:04.145Z,100482.75
2022-10-05T05:29:50.280Z,100477.66
2022-10-05T05:32:28.673Z,100484.84
2022-10-05T05:35:18.639Z,100487.53
2022-10-05T05:37:57.501Z,100501.84
2022-10-05T05:40:31.598Z,100505.97
2022-10-05T05:43:03.741Z,100473.59
2022-10-05T05:45:42.217Z,100417.88
2022-10-05T05:48:17.750Z,100455.44
2022-10-05T05:50:56.089Z,100504.59
2022-10-05T05:53:29.422Z,100516.13
2022-10-05T05:56:02.297Z,100517.97
2022-10-05T05:58:39.075Z,100501.69
2022-10-05T06:01:31.838Z,100505.19
2022-10-05T06:04:10.641Z,100462.44
2022-10-05T06:06:43.589Z,100497.94
2022-10-05T06:09:18.344Z,100502.94
2022-10-05T06:11:55.486Z,100500.09
2022-10-05T06:14:30.940Z,100504.16
2022-10-05T06:17:06.093Z,100504.25
2022-10-05T06:19:37.369Z,100512.69
2022-10-05T06:22:13.106Z,100321.97
2022-10-05T06:24:50.868Z,100514.91
2022-10-05T06:27:36.666Z,100498.91
2022-10-05T06:30:08.817Z,100531.63
2022-10-05T06:32:57.863Z,100525.91
2022-10-05T06:35:40.936Z,100527.63
2022-10-05T06:38:35.878Z,100519.53
2022-10-05T06:41:14.790Z,100514.91
2022-10-05T06:43:58.665Z,100526.63
2022-10-05T06:47:01.993Z,100517.47
2022-10-05T06:50:19.817Z,100531.91
2022-10-05T06:53:24.985Z,100525.19
2022-10-05T06:55:58.732Z,100505.72
2022-10-05T06:58:48.712Z,100491.31
2022-10-05T07:01:26.055Z,100510.59
2022-10-05T07:04:17.864Z,100499.91
2022-10-05T07:06:52.298Z,100515.09
2022-10-05T07:09:34.218Z,100504.38
2022-10-05T07:12:29.680Z,100518.25
2022-10-05T07:15:23.556Z,100504.00
2022-10-05T07:18:05.532Z,100510.19
2022-10-05T07:20:41.985Z,100508.84
2022-10-05T07:23:27.643Z,100494.31
2022-10-05T07:26:06.008Z,100499.88
2022-10-05T07:28:45.992Z,100489.94
2022-10-05T07:31:25.829Z,100505.84
2022-10-05T07:34:03.106Z,100504.06
2022-10-05T07:36:55.207Z,100491.00
2022-10-05T07:39:58.439Z,100507.94
2022-10-05T07:42:48.863Z,100452.53
2022-10-05T07:45:28.281Z,100511.31
2022-10-05T07:47:59.044Z,100509.91
2022-10-05T07:50:35.313Z,100512.59
2022-10-05T07:53:12.208Z,100482.38
2022-10-05T07:55:48.066Z,100490.34
2022-10-05T07:58:22.385Z,100381.78
2022-10-05T08:01:01.419Z,100513.34
2022-10-05T08:03:42.788Z,100515.88
2022-10-05T08:06:16.495Z,100511.25
2022-10-05T08:08:53.822Z,100509.34
2022-10-05T08:11:31.007Z,100437.47
2022-10-05T08:14:05.204Z,100509.91
2022-10-05T08:16:39.065Z,100513.19
2022-10-05T08:19:15.383Z,100523.25
2022-10-05T08:21:47.841Z,100493.97
2022-10-05T08:24:31.409Z,100522.06
2022-10-05T08:27:06.168Z,100485.47
2022-10-05T08:29:38.974Z,100491.50
2022-10-05T08:32:15.034Z,100523.06
2022-10-05T08:34:49.426Z,100517.81
2022-10-05T08:37:22.002Z,100508.50
2022-10-05T08:39:57.730Z,100503.56
2022-10-05T08:43:16.773Z,100499.13
2022-10-05T08:46:24.090Z,100509.38
2022-10-05T08:49:35.312Z,100529.22
2022-10-05T08:52:31.731Z,100525.34
2022-10-05T08:55:30.226Z,100534.59
2022-10-05T08:58:26.991Z,100532.91
2022-10-05T09:01:02.777Z,100469.97
2022-10-05T09:04:01.177Z,100536.88
2022-10-05T09:06:54.417Z,100533.41
2022-10-05T09:10:03.976Z,100528.00
2022-10-05T09:12:51.162Z,100539.63
2022-10-05T09:15:45.829Z,100545.38
2022-10-05T09:18:54.993Z,100539.66
2022-10-05T09:21:42.948Z,100534.50
2022-10-05T09:24:29.800Z,100549.34
2022-10-05T09:27:08.798Z,100538.34
2022-10-05T09:30:06.274Z,100548.25
2022-10-05T09:33:01.888Z,100541.44
2022-10-05T09:36:08.344Z,100551.25
2022-10-05T09:39:00.960Z,100528.91
2022-10-05T09:41:50.997Z,100551.25
2022-10-05T09:44:42.307Z,100547.47
2022-10-05T09:47:41.705Z,100544.78
2022-10-05T09:50:55.062Z,100543.84
2022-10-05T09:53:54.856Z,100520.28
2022-10-05T09:56:50.162Z,100543.38
2022-10-05T10:00:09.492Z,100544.88
2022-10-05T10:03:16.171Z,100531.47
2022-10-05T10:06:21.981Z,100448.19
2022-10-05T10:09:19.370Z,100531.69
2022-10-05T10:12:10.583Z,100537.56
2022-10-05T10:15:03.798Z,100526.50
2022-10-05T10:17:53.539Z,100519.28
2022-10-05T10:20:38.587Z,100531.97
2022-10-05T10:23:36.371Z,100530.38
2022-10-05T10:26:45.825Z,100525.31
2022-10-05T10:30:00.965Z,100529.25
2022-10-05T10:33:01.713Z,100528.72
2022-10-05T10:35:34.263Z,100541.50
2022-10-05T10:38:31.121Z,100549.09
2022-10-05T10:41:33.016Z,100541.25
2022-10-05T10:44:48.678Z,100537.88
2022-10-05T10:47:35.902Z,100455.63
2022-10-05T10:50:36.137Z,100500.78
2022-10-05T10:53:18.460Z,100532.16
2022-10-05T10:55:56.791Z,100522.69
2022-10-05T10:59:02.824Z,100519.72
2022-10-05T11:01:35.636Z,100449.84
2022-10-05T11:04:42.218Z,100514.00
2022-10-05T11:07:42.351Z,100510.88
2022-10-05T11:10:26.545Z,100511.03
2022-10-05T11:13:21.386Z,100501.47
2022-10-05T11:16:29.008Z,100498.50
2022-10-05T11:19:24.857Z,100479.69
2022-10-05T11:22:19.858Z,100489.50
2022-10-05T11:25:14.118Z,100471.91
2022-10-05T11:28:04.998Z,100470.06
2022-10-05T11:31:29.887Z,100467.69
2022-10-05T11:34:23.697Z,100467.28
2022-10-05T11:37:03.908Z,100466.56
2022-10-05T11:39:38.773Z,100470.53
2022-10-05T11:42:50.129Z,100459.66
2022-10-05T11:45:26.888Z,100455.88
2022-10-05T11:48:31.510Z,100455.97
2022-10-05T11:51:28.448Z,100445.16
2022-10-05T11:54:07.868Z,100444.22
2022-10-05T11:56:41.953Z,100401.50
2022-10-05T11:59:18.762Z,100444.63
2022-10-05T12:01:54.309Z,100425.28
2022-10-05T12:04:34.582Z,100420.47
2022-10-05T12:07:10.362Z,100418.06
2022-10-05T12:10:17.124Z,100411.41
2022-10-05T12:12:59.002Z,100229.25
2022-10-05T12:15:32.197Z,100402.81
2022-10-05T12:18:08.332Z,100401.06
2022-10-05T12:20:46.945Z,100398.94
2022-10-05T12:23:21.918Z,100390.72
2022-10-05T12:25:59.317Z,100387.91
2022-10-05T12:28:34.304Z,100385.81
2022-10-05T12:31:15.388Z,100350.38
2022-10-05T12:33:52.484Z,100317.38
2022-10-05T12:36:31.945Z,100388.13
2022-10-05T12:39:21.342Z,100386.44
2022-10-05T12:41:56.065Z,100374.50
2022-10-05T12:44:50.527Z,100324.22
2022-10-05T12:47:24.968Z,100364.75
2022-10-05T12:50:04.437Z,100343.22
2022-10-05T12:52:46.869Z,100283.38
2022-10-05T12:55:21.780Z,100347.13
2022-10-05T12:58:00.333Z,100325.72
2022-10-05T13:00:31.895Z,100335.25
2022-10-05T13:03:02.931Z,100314.09
2022-10-05T13:05:41.498Z,100321.97
2022-10-05T13:08:18.975Z,100319.47
2022-10-05T13:10:52.602Z,100323.03
2022-10-05T13:13:52.980Z,100323.00
2022-10-05T13:16:26.651Z,100315.06
2022-10-05T13:19:05.401Z,100306.75
2022-10-05T13:21:40.877Z,100212.94
2022-10-05T13:24:19.051Z,100314.16
2022-10-05T13:26:54.092Z,100307.22
2022-10-05T13:29:29.311Z,100300.78
2022-10-05T13:32:00.997Z,100297.06
2022-10-05T13:34:37.119Z,100269.59
2022-10-05T13:37:13.697Z,100216.66
2022-10-05T13:40:06.700Z,100294.97
2022-10-05T13:42:41.213Z,100268.22
2022-10-05T13:45:16.814Z,100296.06
2022-10-05T13:47:55.739Z,100284.44
2022-10-05T13:50:32.679Z,100276.50
2022-10-05T13:53:10.463Z,100277.78
2022-10-05T13:55:46.645Z,100275.19
2022-10-05T13:58:27.657Z,100158.00
2022-10-05T14:00:59.600Z,100261.94
2022-10-05T14:03:31.123Z,100265.03
2022-10-05T14:06:01.554Z,100264.56
2022-10-05T14:08:33.375Z,100251.59
2022-10-05T14:11:20.609Z,100250.16
2022-10-05T14:13:53.107Z,100246.06
2022-10-05T14:16:23.474Z,100248.09
2022-10-05T14:18:55.054Z,100223.50
2022-10-05T14:21:24.633Z,100232.53
2022-10-05T14:23:52.919Z,100138.94
2022-10-05T14:26:33.222Z,100226.34
2022-10-05T14:29:16.755Z,100218.09
2022-10-05T14:31:52.997Z,100208.78
2022-10-05T14:34:34.597Z,100197.84
2022-10-05T14:37:10.023Z,100211.41
2022-10-05T14:39:42.495Z,100208.88
2022-10-05T14:42:20.095Z,100201.53
2022-10-05T14:44:59.936Z,100162.28
2022-10-05T14:47:31.700Z,100198.03
2022-10-05T14:50:16.890Z,100192.63
2022-10-05T14:52:51.835Z,100170.88
2022-10-05T14:55:37.916Z,100185.06
2022-10-05T14:58:23.713Z,100180.16
2022-10-05T15:01:00.892Z,100171.63
2022-10-05T15:03:45.845Z,100170.41
2022-10-05T15:06:22.178Z,100172.81
2022-10-05T15:09:16.422Z,100176.19
2022-10-05T15:11:51.264Z,100147.25
2022-10-05T15:14:23.875Z,100117.22
2022-10-05T15:16:55.158Z,100169.00
2022-10-05T15:19:28.393Z,100158.31
2022-10-05T15:22:18.825Z,100161.44
2022-10-05T15:24:59.247Z,100151.81
2022-10-05T15:27:36.625Z,100155.28
2022-10-05T15:30:11.101Z,100153.31
2022-10-05T15:32:57.415Z,100148.56
2022-10-05T15:35:54.248Z,100148.22
2022-10-05T15:38:25.805Z,100150.72
2022-10-05T15:41:07.897Z,100141.69
2022-10-05T15:43:47.004Z,100144.63
2022-10-05T15:46:19.215Z,100141.69
2022-10-05T15:49:01.973Z,100132.50
2022-10-05T15:51:42.327Z,100149.97
2022-10-05T15:54:30.967Z,100144.31
2022-10-05T15:57:08.228Z,100130.72
2022-10-05T15:59:45.177Z,100157.06
2022-10-05T16:02:20.622Z,100154.47
2022-10-05T16:05:01.156Z,100162.06
2022-10-05T16:08:00.168Z,100128.22
2022-10-05T16:10:28.571Z,100164.50
2022-10-05T16:13:11.733Z,100159.84
2022-10-05T16:15:44.229Z,100107.78
2022-10-05T16:18:32.658Z,100160.72
2022-10-05T16:21:14.082Z,100163.72
2022-10-05T16:23:57.463Z,100160.22
2022-10-05T16:26:38.803Z,100095.34
2022-10-05T16:29:11.327Z,100172.69
2022-10-05T16:31:54.382Z,100172.38
2022-10-05T16:34:35.488Z,100177.91
2022-10-05T16:37:12.643Z,100177.22
2022-10-05T16:39:59.929Z,100169.66
2022-10-05T16:42:43.316Z,100162.66
2022-10-05T16:45:44.642Z,100187.63
2022-10-05T16:48:22.334Z,100193.22
2022-10-05T16:51:03.890Z,100196.09
2022-10-05T16:53:39.797Z,100196.69
2022-10-05T16:56:12.639Z,100209.00
2022-10-05T16:58:56.355Z,100185.34
2022-10-05T17:01:41.890Z,100226.25
2022-10-05T17:04:25.677Z,100228.13
2022-10-05T17:07:08.654Z,100235.56
2022-10-05T17:09:56.679Z,100173.25
2022-10-05T17:12:42.873Z,100248.41
2022-10-05T17:15:29.221Z,100253.94
2022-10-05T17:18:10.806Z,100254.16
2022-10-05T17:20:50.031Z,100247.19
2022-10-05T17:23:29.181Z,100267.16
2022-10-05T17:26:05.396Z,100255.88
2022-10-05T17:28:42.109Z,100269.59
2022-10-05T17:31:17.721Z,100277.56
2022-10-05T17:34:22.929Z,100284.53
2022-10-05T17:36:57.807Z,100289.09
2022-10-05T17:39:47.570Z,100288.97
2022-10-05T17:42:48.197Z,100291.78
2022-10-05T17:45:54.075Z,100302.41
2022-10-05T17:49:07.095Z,100306.47
2022-10-05T17:52:16.361Z,100299.63
2022-10-05T17:55:30.037Z,100261.66
2022-10-05T17:58:02.080Z,100309.16
2022-10-05T18:01:07.068Z,100315.16
2022-10-05T18:03:42.105Z,100310.31
2022-10-05T18:06:52.702Z,100306.06
2022-10-05T18:09:39.031Z,100309.16
2022-10-05T18:12:26.377Z,100320.09
2022-10-05T18:15:01.822Z,100313.31
2022-10-05T18:17:40.244Z,100321.13
2022-10-05T18:20:32.646Z,100288.88
2022-10-05T18:23:34.568Z,100329.75
2022-10-05T18:26:09.195Z,100328.09
2022-10-05T18:28:50.777Z,100321.34
2022-10-05T18:31:31.431Z,100332.66
2022-10-05T18:34:10.251Z,100303.34
2022-10-05T18:37:00.107Z,100315.16
2022-10-05T18:39:47.315Z,100338.91
2022-10-05T18:42:23.033Z,100309.75
2022-10-05T18:44:54.500Z,100346.06
2022-10-05T18:47:33.792Z,100347.53
2022-10-05T18:50:12.732Z,100326.75
2022-10-05T18:52:54.795Z,100358.44
2022-10-05T18:55:32.734Z,100344.91
2022-10-05T18:58:17.041Z,100364.91
2022-10-05T19:01:19.954Z,100366.91
2022-10-05T19:04:04.823Z,100368.19
2022-10-05T19:06:44.179Z,100374.28
2022-10-05T19:09:26.169Z,100370.13
2022-10-05T19:12:00.794Z,100382.97
2022-10-05T19:14:38.368Z,100389.06
2022-10-05T19:17:21.454Z,100324.91
2022-10-05T19:20:17.537Z,100393.72
2022-10-05T19:23:02.056Z,100386.38
2022-10-05T19:25:38.535Z,100404.81
2022-10-05T19:28:20.551Z,100388.03
2022-10-05T19:31:09.816Z,100412.94
2022-10-05T19:33:52.551Z,100414.09
2022-10-05T19:36:35.423Z,100328.66
2022-10-05T19:39:10.803Z,100278.00
2022-10-05T19:41:53.269Z,100376.56
2022-10-05T19:44:34.151Z,100389.72
2022-10-05T19:47:06.714Z,100396.28
2022-10-05T19:49:43.472Z,100425.66
2022-10-05T19:52:22.371Z,100427.19
2022-10-05T19:55:04.251Z,100435.50
2022-10-05T19:57:33.437Z,100433.94
2022-10-05T20:00:01.832Z,100421.69
2022-10-05T20:02:33.469Z,100386.72
2022-10-05T20:05:08.012Z,100426.31
2022-10-05T20:07:38.553Z,100438.63
2022-10-05T20:10:29.131Z,100413.22
2022-10-05T20:12:58.788Z,100428.47
2022-10-05T20:15:45.860Z,100430.69
2022-10-05T20:18:50.585Z,100437.47
2022-10-05T20:21:43.080Z,100393.91
2022-10-05T20:24:13.813Z,100448.97
2022-10-05T20:27:01.654Z,100456.41
2022-10-05T20:29:30.510Z,100441.66
2022-10-05T20:31:58.526Z,100434.22
2022-10-05T20:34:26.296Z,100474.41
2022-10-05T20:36:54.210Z,100470.75
2022-10-05T20:39:23.353Z,100481.88
2022-10-05T20:41:51.121Z,100489.50
2022-10-05T20:44:19.035Z,100485.47
2022-10-05T20:46:47.386Z,100446.94
2022-10-05T20:49:15.223Z,100495.50
2022-10-05T20:51:43.547Z,100455.97
2022-10-05T20:54:11.317Z,100484.69
2022-10-05T20:56:42.602Z,100476.25
2022-10-05T20:59:10.358Z,100499.94
2022-10-05T21:01:38.078Z,100491.31
2022-10-05T21:04:06.930Z,100482.53
2022-10-05T21:06:34.751Z,100452.53
2022-10-05T21:09:02.548Z,100405.25
2022-10-05T21:11:30.366Z,100468.06
2022-10-05T21:14:03.465Z,100490.47
2022-10-05T21:16:34.190Z,100475.00
2022-10-05T21:19:01.965Z,100488.97
2022-10-05T21:21:29.723Z,100502.25
2022-10-05T21:24:00.205Z,100500.63
2022-10-05T21:26:29.053Z,100502.84
2022-10-05T21:28:57.058Z,100499.84
2022-10-05T21:31:27.215Z,100490.47
2022-10-05T21:33:55.673Z,100495.28
2022-10-05T21:36:24.848Z,100486.03
2022-10-05T21:38:54.157Z,100396.69
2022-10-05T21:41:22.743Z,100499.97
2022-10-05T21:43:50.526Z,100497.53
2022-10-05T21:46:21.194Z,100482.38
2022-10-05T21:48:51.063Z,100497.06
2022-10-05T21:51:19.826Z,100496.94
2022-10-05T21:53:52.118Z,100497.44
2022-10-05T21:56:22.593Z,100495.50
2022-10-05T21:58:51.572Z,100491.34
2022-10-05T22:01:22.699Z,100497.63
2022-10-05T22:03:52.334Z,100507.38
2022-10-05T22:06:20.233Z,100461.19
2022-10-05T22:08:48.184Z,100504.75
2022-10-05T22:11:18.191Z,100499.72
2022-10-05T22:13:47.868Z,100516.97
2022-10-05T22:16:17.457Z,100520.03
2022-10-05T22:18:45.603Z,100509.41
2022-10-05T22:21:15.766Z,100478.09
2022-10-05T22:23:46.035Z,100517.94
2022-10-05T22:26:15.723Z,100516.38
2022-10-05T22:28:44.359Z,100506.13
2022-10-05T22:31:13.502Z,100510.97
2022-10-05T22:33:42.037Z,100492.09
2022-10-05T22:36:11.116Z,100499.94
2022-10-05T22:38:40.377Z,100428.75
2022-10-05T22:41:11.799Z,100450.63
2022-10-05T22:43:40.005Z,100506.25
2022-10-05T22:46:11.710Z,100505.75
2022-10-05T22:48:40.071Z,100509.91
2022-10-05T22:51:08.825Z,100509.53
2022-10-05T22:53:36.911Z,100513.38
2022-10-05T22:56:07.937Z,100253.41
2022-10-05T22:58:36.590Z,100523.63
2022-10-05T23:01:06.634Z,100503.91
2022-10-05T23:03:35.340Z,100536.69
2022-10-05T23:06:05.879Z,100542.69
2022-10-05T23:08:34.871Z,100515.25
2022-10-05T23:11:03.593Z,100533.88
2022-10-05T23:13:33.392Z,100529.16
2022-10-05T23:16:07.769Z,100365.66
2022-10-05T23:18:35.960Z,100507.56
2022-10-05T23:21:05.852Z,100540.16
2022-10-05T23:23:33.676Z,100491.81
2022-10-05T23:26:01.609Z,100547.41
2022-10-05T23:28:29.943Z,100563.19
2022-10-05T23:31:04.493Z,100564.34
2022-10-05T23:33:32.895Z,100589.69
2022-10-05T23:36:00.964Z,100586.22
2022-10-05T23:38:29.971Z,100589.47
2022-10-05T23:40:59.781Z,100598.72
2022-10-05T23:43:28.655Z,100582.81
2022-10-05T23:45:57.325Z,100601.44
2022-10-05T23:48:27.461Z,100600.38
2022-10-05T23:50:55.867Z,100611.78
2022-10-05T23:53:24.616Z,100630.41
2022-10-05T23:55:52.582Z,100588.03
2022-10-05T23:58:20.822Z,100617.88
